Time;durP1;ratioP1;P1;durP2;ratioP2;P2;SDS_P1;SDS_P2;PMS_P1;PMS_P2;Temp;Humidity;BMP_temperature;BMP_pressure;BME280_temperature;BME280_humidity;BME280_pressure;Samples;Min_cycle;Max_cycle;Signal;HPM_P1;HPM_P2
2021/10/16 00:02:23;;;;;;;9.55;7.50;;;11.00;96.40;;;;;;5094120;28;20280;-78
2021/10/16 00:04:50;;;;;;;8.20;6.82;;;11.00;97.10;;;;;;5092924;28;20258;-78
2021/10/16 00:07:17;;;;;;;7.90;7.13;;;10.90;97.20;;;;;;5090514;28;20291;-77
2021/10/16 00:09:44;;;;;;;8.88;7.97;;;11.00;97.50;;;;;;5086539;28;20236;-77
2021/10/16 00:12:11;;;;;;;11.80;8.52;;;11.00;97.60;;;;;;5091942;28;20205;-78
2021/10/16 00:14:38;;;;;;;8.80;7.90;;;10.90;97.80;;;;;;5092634;28;20244;-77
2021/10/16 00:17:06;;;;;;;10.63;8.75;;;10.90;98.10;;;;;;5090747;28;20221;-77
2021/10/16 00:19:33;;;;;;;9.45;8.25;;;10.90;98.20;;;;;;5092055;28;20228;-77
2021/10/16 00:22:00;;;;;;;10.32;8.57;;;10.90;98.30;;;;;;5090926;28;20403;-78
2021/10/16 00:24:26;;;;;;;11.10;8.63;;;10.90;98.20;;;;;;5091074;28;20260;-78
2021/10/16 00:26:53;;;;;;;11.00;9.90;;;10.80;98.50;;;;;;5084551;28;20207;-78
2021/10/16 00:29:20;;;;;;;9.95;8.95;;;10.80;98.80;;;;;;5076925;28;20211;-78
2021/10/16 00:31:47;;;;;;;9.82;8.70;;;10.80;99.20;;;;;;5078732;28;20207;-77
2021/10/16 00:34:15;;;;;;;11.25;9.43;;;10.80;99.50;;;;;;5078351;28;20318;-77
2021/10/16 00:36:42;;;;;;;10.23;9.13;;;10.80;99.30;;;;;;5078250;28;20218;-79
2021/10/16 00:39:09;;;;;;;10.15;9.10;;;10.80;98.80;;;;;;5077060;28;20200;-77
2021/10/16 00:41:36;;;;;;;10.50;9.18;;;10.80;99.00;;;;;;5081714;28;20209;-78
2021/10/16 00:44:14;;;;;;;12.57;9.10;;;10.70;99.30;;;;;;5082292;28;20288;-78
2021/10/16 00:46:41;;;;;;;11.85;8.60;;;10.70;99.80;;;;;;5077115;28;20236;-78
2021/10/16 00:49:08;;;;;;;10.10;9.02;;;10.70;99.90;;;;;;5075160;28;20738;-78
2021/10/16 00:51:36;;;;;;;9.77;8.60;;;10.70;99.90;;;;;;5075988;28;20317;-79
2021/10/16 00:54:07;;;;;;;11.18;9.82;;;10.70;99.90;;;;;;5080603;28;20230;-78
2021/10/16 00:56:35;;;;;;;10.95;9.82;;;10.70;99.90;;;;;;5087766;28;20221;-78
2021/10/16 00:59:04;;;;;;;11.48;9.80;;;10.70;99.90;;;;;;5094491;28;20210;-77
2021/10/16 01:01:31;;;;;;;11.02;9.60;;;10.60;99.90;;;;;;5096858;28;20224;-77
2021/10/16 01:03:58;;;;;;;13.95;10.93;;;10.60;99.90;;;;;;5096589;28;20214;-78
2021/10/16 01:06:25;;;;;;;13.65;10.15;;;10.50;99.90;;;;;;5096336;28;20295;-77
2021/10/16 01:08:55;;;;;;;13.05;11.10;;;10.50;99.90;;;;;;5086519;28;20278;-77
2021/10/16 01:11:34;;;;;;;15.23;10.93;;;10.50;99.90;;;;;;5087638;28;20203;-78
2021/10/16 01:14:04;;;;;;;15.48;11.05;;;10.40;99.90;;;;;;5076661;28;20236;-79
2021/10/16 01:16:31;;;;;;;11.73;10.38;;;10.40;99.90;;;;;;5077910;28;20218;-78
2021/10/16 01:18:59;;;;;;;11.52;10.32;;;10.40;99.90;;;;;;5077539;28;20207;-78
2021/10/16 01:21:30;;;;;;;11.93;10.70;;;10.50;99.90;;;;;;5078971;28;20255;-78
2021/10/16 01:23:58;;;;;;;11.80;10.50;;;10.50;99.90;;;;;;5077178;28;20234;-78
2021/10/16 01:26:28;;;;;;;12.80;11.50;;;10.60;99.90;;;;;;5075675;28;20207;-78
2021/10/16 01:28:55;;;;;;;13.10;10.90;;;10.60;99.90;;;;;;5075137;28;20276;-78
2021/10/16 01:31:23;;;;;;;12.40;10.45;;;10.70;99.90;;;;;;5075594;28;20219;-78
2021/10/16 01:33:50;;;;;;;14.57;11.32;;;10.60;99.90;;;;;;5075440;28;20259;-78
2021/10/16 01:36:17;;;;;;;11.07;9.95;;;10.60;99.90;;;;;;5075361;28;20291;-77
2021/10/16 01:38:46;;;;;;;12.30;10.20;;;10.60;99.90;;;;;;5074198;28;20213;-77
2021/10/16 01:41:12;;;;;;;11.38;9.98;;;10.60;99.90;;;;;;5074353;28;20234;-78
2021/10/16 01:43:40;;;;;;;12.90;10.57;;;10.60;99.90;;;;;;5074771;28;20206;-78
2021/10/16 01:46:07;;;;;;;10.60;9.25;;;10.50;99.90;;;;;;5074615;28;20735;-77
2021/10/16 01:48:34;;;;;;;12.48;10.02;;;10.50;99.90;;;;;;5076717;28;20223;-78
2021/10/16 01:51:01;;;;;;;16.00;11.98;;;10.60;99.90;;;;;;5079228;28;20655;-78
2021/10/16 01:53:28;;;;;;;15.23;11.73;;;10.50;99.90;;;;;;5079057;28;20237;-78
2021/10/16 01:55:57;;;;;;;14.82;11.93;;;10.50;99.90;;;;;;5079110;28;20743;-78
2021/10/16 01:58:23;;;;;;;12.38;10.70;;;10.50;99.90;;;;;;5074919;28;20210;-78
2021/10/16 02:00:50;;;;;;;14.55;11.00;;;10.50;99.90;;;;;;5074675;28;20317;-78
2021/10/16 02:03:17;;;;;;;16.73;12.18;;;10.50;99.90;;;;;;5079684;28;20214;-78
2021/10/16 02:05:45;;;;;;;14.25;11.90;;;10.50;99.90;;;;;;5094600;28;20415;-78
2021/10/16 02:08:13;;;;;;;15.80;12.10;;;10.50;99.90;;;;;;5096409;28;20211;-76
2021/10/16 02:10:42;;;;;;;14.70;11.02;;;10.50;99.90;;;;;;5100096;28;20206;-77
2021/10/16 02:13:11;;;;;;;16.05;10.82;;;10.50;99.90;;;;;;5087873;28;20297;-77
2021/10/16 02:15:38;;;;;;;15.43;12.40;;;10.50;99.90;;;;;;5080120;28;20266;-77
2021/10/16 02:18:06;;;;;;;15.45;11.38;;;10.40;99.90;;;;;;5078731;28;20631;-77
2021/10/16 02:20:33;;;;;;;14.43;12.15;;;10.40;99.90;;;;;;5080173;28;20256;-79
2021/10/16 02:22:59;;;;;;;15.77;12.45;;;10.40;99.90;;;;;;5084687;28;20740;-77
2021/10/16 02:25:26;;;;;;;15.00;12.23;;;10.40;99.90;;;;;;5078346;28;20238;-78
2021/10/16 02:27:53;;;;;;;17.50;12.73;;;10.30;99.90;;;;;;5077688;28;20210;-77
2021/10/16 02:30:22;;;;;;;18.52;13.52;;;10.30;99.90;;;;;;5077745;28;20286;-78
2021/10/16 02:32:49;;;;;;;20.30;14.68;;;10.20;99.90;;;;;;5077636;28;20298;-77
2021/10/16 02:35:16;;;;;;;18.70;14.43;;;10.20;99.90;;;;;;5078388;28;20317;-78
2021/10/16 02:37:43;;;;;;;18.60;14.50;;;10.20;99.90;;;;;;5078046;28;20203;-78
2021/10/16 02:40:11;;;;;;;17.35;13.55;;;10.20;99.90;;;;;;5078294;28;20253;-77
2021/10/16 02:42:39;;;;;;;23.30;15.40;;;10.20;99.90;;;;;;5077572;28;20206;-78
2021/10/16 02:45:06;;;;;;;20.98;14.95;;;10.30;99.90;;;;;;5078003;28;20265;-77
2021/10/16 02:47:35;;;;;;;18.10;13.30;;;10.20;99.90;;;;;;5077466;28;20202;-77
2021/10/16 02:50:02;;;;;;;16.40;13.60;;;10.20;99.90;;;;;;5077209;28;20208;-77
2021/10/16 02:52:28;;;;;;;20.58;14.70;;;10.20;99.90;;;;;;5088071;28;20657;-77
2021/10/16 02:54:55;;;;;;;21.55;14.68;;;10.30;99.90;;;;;;5082118;28;20235;-78
2021/10/16 02:57:22;;;;;;;22.10;14.45;;;10.30;99.90;;;;;;5078966;28;20210;-78
2021/10/16 02:59:49;;;;;;;24.88;15.05;;;10.30;99.90;;;;;;5077506;28;20269;-78
2021/10/16 03:02:16;;;;;;;25.15;15.80;;;10.20;99.90;;;;;;5077878;28;20229;-78
2021/10/16 03:04:44;;;;;;;23.58;16.38;;;10.20;99.90;;;;;;5077039;28;20221;-78
2021/10/16 03:07:11;;;;;;;24.08;15.55;;;10.20;99.90;;;;;;5078141;28;20236;-77
2021/10/16 03:09:38;;;;;;;27.90;17.88;;;10.10;99.90;;;;;;5082317;28;20225;-79
2021/10/16 03:12:05;;;;;;;28.30;19.20;;;10.10;99.90;;;;;;5083148;28;20209;-78
2021/10/16 03:14:32;;;;;;;30.33;18.30;;;10.20;99.90;;;;;;5082222;28;20221;-78
2021/10/16 03:16:59;;;;;;;30.65;18.27;;;10.20;99.90;;;;;;5076447;28;20301;-77
2021/10/16 03:19:26;;;;;;;33.50;19.00;;;10.20;99.90;;;;;;5075843;28;20198;-78
2021/10/16 03:21:54;;;;;;;36.25;20.52;;;10.10;99.90;;;;;;5077036;28;20234;-78
2021/10/16 03:24:21;;;;;;;37.92;21.60;;;10.10;99.90;;;;;;5076560;28;20225;-78
2021/10/16 03:26:48;;;;;;;41.15;21.52;;;10.00;99.90;;;;;;5075464;28;20693;-77
2021/10/16 03:29:14;;;;;;;34.85;20.23;;;10.00;99.90;;;;;;5075539;28;20212;-77
2021/10/16 03:31:41;;;;;;;38.20;22.65;;;10.10;99.90;;;;;;5075953;28;20229;-78
2021/10/16 03:34:08;;;;;;;36.08;21.40;;;10.10;99.90;;;;;;5076841;28;20225;-78
2021/10/16 03:36:35;;;;;;;40.30;22.25;;;10.00;99.90;;;;;;5077197;28;20216;-79
2021/10/16 03:39:04;;;;;;;37.30;22.98;;;9.90;99.90;;;;;;5076686;28;20220;-77
2021/10/16 03:41:31;;;;;;;41.10;22.05;;;10.00;99.90;;;;;;5077502;28;20322;-79
2021/10/16 03:43:58;;;;;;;36.85;22.55;;;10.00;99.90;;;;;;5078670;28;21091;-79
2021/10/16 03:46:25;;;;;;;40.78;22.83;;;9.90;99.90;;;;;;5086379;28;20296;-79
2021/10/16 03:48:52;;;;;;;42.60;23.60;;;9.90;99.90;;;;;;5077139;28;20217;-78
2021/10/16 03:51:19;;;;;;;40.90;23.88;;;9.80;99.90;;;;;;5078991;28;20198;-77
2021/10/16 03:53:45;;;;;;;43.70;24.20;;;9.70;99.90;;;;;;5083771;28;20210;-78
2021/10/16 03:56:14;;;;;;;45.35;25.17;;;9.70;99.90;;;;;;5096587;28;20209;-77
2021/10/16 03:58:41;;;;;;;44.67;23.60;;;9.60;99.90;;;;;;5098317;28;20262;-76
2021/10/16 04:01:08;;;;;;;42.05;24.80;;;9.60;99.90;;;;;;5097848;28;20226;-78
2021/10/16 04:03:36;;;;;;;42.40;25.42;;;9.60;99.90;;;;;;5083450;28;20267;-78
2021/10/16 04:06:04;;;;;;;50.53;24.83;;;9.60;99.90;;;;;;5077611;28;20206;-78
2021/10/16 04:08:31;;;;;;;44.83;23.98;;;9.60;99.90;;;;;;5077374;28;20233;-78
2021/10/16 04:10:57;;;;;;;46.15;26.00;;;9.60;99.90;;;;;;5080446;28;20273;-78
2021/10/16 04:13:26;;;;;;;45.17;24.98;;;9.60;99.90;;;;;;5087931;28;20297;-77
2021/10/16 04:15:53;;;;;;;43.22;26.08;;;9.60;99.90;;;;;;5088341;28;20236;-77
2021/10/16 04:18:20;;;;;;;43.92;25.15;;;9.60;99.90;;;;;;5092581;28;20214;-78
2021/10/16 04:20:46;;;;;;;43.13;24.33;;;9.50;99.90;;;;;;5096896;28;20226;-78
2021/10/16 04:23:13;;;;;;;53.65;28.13;;;9.50;99.90;;;;;;5098868;28;20254;-77
2021/10/16 04:25:40;;;;;;;50.63;25.33;;;9.50;99.90;;;;;;5098155;28;20221;-77
2021/10/16 04:28:07;;;;;;;42.30;24.80;;;9.50;99.90;;;;;;5088809;28;20217;-78
2021/10/16 04:30:35;;;;;;;44.20;25.20;;;9.60;99.90;;;;;;5076178;28;20202;-77
2021/10/16 04:33:02;;;;;;;44.67;25.67;;;9.60;99.90;;;;;;5075557;28;20219;-78
2021/10/16 04:35:29;;;;;;;40.17;23.83;;;9.50;99.90;;;;;;5076199;28;20260;-77
2021/10/16 04:37:56;;;;;;;45.15;24.77;;;9.60;99.90;;;;;;5076467;28;20206;-77
2021/10/16 04:40:25;;;;;;;51.03;24.60;;;9.50;99.90;;;;;;5078161;28;20216;-77
2021/10/16 04:42:53;;;;;;;41.92;24.88;;;9.50;99.90;;;;;;5080359;28;20217;-78
2021/10/16 04:45:21;;;;;;;43.63;24.65;;;9.50;99.90;;;;;;5084962;28;20241;-78
2021/10/16 04:47:49;;;;;;;47.55;24.48;;;9.40;99.90;;;;;;5081638;28;20206;-77
2021/10/16 04:50:16;;;;;;;40.22;24.48;;;9.40;99.90;;;;;;5077270;28;20623;-78
2021/10/16 04:52:43;;;;;;;44.15;25.35;;;9.40;99.90;;;;;;5078673;28;20217;-79
2021/10/16 04:55:10;;;;;;;47.78;25.77;;;9.40;99.90;;;;;;5076844;28;20233;-77
2021/10/16 04:57:38;;;;;;;40.53;23.83;;;9.50;99.90;;;;;;5076388;28;20209;-78
2021/10/16 05:00:06;;;;;;;42.65;24.05;;;9.50;99.90;;;;;;5081573;28;20202;-78
2021/10/16 05:02:33;;;;;;;44.47;23.90;;;9.50;99.90;;;;;;5082313;28;20226;-78
2021/10/16 05:05:02;;;;;;;41.67;23.50;;;9.50;99.90;;;;;;5083951;28;20237;-78
2021/10/16 05:07:28;;;;;;;47.72;23.58;;;9.50;99.90;;;;;;5084788;28;20229;-77
2021/10/16 05:09:55;;;;;;;40.20;22.90;;;9.50;99.90;;;;;;5079584;28;20331;-78
2021/10/16 05:12:22;;;;;;;46.45;26.25;;;9.50;99.90;;;;;;5077589;28;20201;-77
2021/10/16 05:14:49;;;;;;;42.00;25.08;;;9.50;99.90;;;;;;5085402;28;20226;-77
2021/10/16 05:17:16;;;;;;;39.70;23.50;;;9.50;99.90;;;;;;5093585;28;20206;-78
2021/10/16 05:19:42;;;;;;;42.17;23.45;;;9.50;99.90;;;;;;5093336;28;20269;-77
2021/10/16 05:22:11;;;;;;;39.22;23.08;;;9.40;99.90;;;;;;5093558;28;20225;-77
2021/10/16 05:24:37;;;;;;;37.60;22.80;;;9.40;99.90;;;;;;5089059;28;20232;-78
2021/10/16 05:27:04;;;;;;;50.28;23.27;;;9.30;99.90;;;;;;5086311;28;20209;-78
2021/10/16 05:29:31;;;;;;;39.35;22.55;;;9.30;99.90;;;;;;5085099;28;20205;-78
2021/10/16 05:31:58;;;;;;;40.42;24.02;;;9.30;99.90;;;;;;5081193;28;20636;-79
2021/10/16 05:34:25;;;;;;;40.05;22.48;;;9.30;99.90;;;;;;5074896;28;20309;-76
2021/10/16 05:36:52;;;;;;;39.47;20.98;;;9.20;99.90;;;;;;5074467;28;20702;-78
2021/10/16 05:39:20;;;;;;;44.58;24.30;;;9.30;99.90;;;;;;5074273;28;20206;-77
2021/10/16 05:41:48;;;;;;;44.97;24.42;;;9.30;99.90;;;;;;5074406;28;20237;-78
2021/10/16 05:44:15;;;;;;;40.53;21.95;;;9.20;99.90;;;;;;5073834;28;20265;-78
2021/10/16 05:46:42;;;;;;;38.65;22.00;;;9.30;99.90;;;;;;5073920;28;20198;-77
2021/10/16 05:49:09;;;;;;;41.35;23.45;;;9.20;99.90;;;;;;5073751;28;20269;-78
2021/10/16 05:51:36;;;;;;;39.10;22.35;;;9.20;99.90;;;;;;5074332;28;20296;-78
2021/10/16 05:54:03;;;;;;;37.58;22.15;;;9.30;99.90;;;;;;5073533;28;20261;-78
2021/10/16 05:56:31;;;;;;;44.80;22.23;;;9.30;99.90;;;;;;5073392;28;20612;-77
2021/10/16 05:58:59;;;;;;;46.08;22.45;;;9.20;99.90;;;;;;5074022;28;20237;-77
2021/10/16 06:01:27;;;;;;;40.28;21.05;;;9.20;99.90;;;;;;5074060;28;20222;-78
2021/10/16 06:03:54;;;;;;;38.10;21.88;;;9.30;99.90;;;;;;5075282;28;20233;-77
2021/10/16 06:06:21;;;;;;;40.35;21.75;;;9.30;99.90;;;;;;5073724;28;20296;-78
2021/10/16 06:08:48;;;;;;;41.25;21.45;;;9.30;99.90;;;;;;5073955;28;20305;-78
2021/10/16 06:11:14;;;;;;;43.10;21.95;;;9.30;99.90;;;;;;5074083;28;20205;-78
2021/10/16 06:13:43;;;;;;;38.42;20.17;;;9.30;99.90;;;;;;5074067;28;20232;-79
2021/10/16 06:16:10;;;;;;;41.67;22.50;;;9.30;99.90;;;;;;5074121;28;20298;-79
2021/10/16 06:18:38;;;;;;;43.28;23.83;;;9.30;99.90;;;;;;5073874;28;20255;-76
2021/10/16 06:21:05;;;;;;;43.72;23.60;;;9.30;99.90;;;;;;5073703;28;20257;-77
2021/10/16 06:23:32;;;;;;;42.55;22.05;;;9.30;99.90;;;;;;5074904;28;20208;-79
2021/10/16 06:25:59;;;;;;;39.65;21.48;;;9.30;99.90;;;;;;5074835;28;20279;-78
2021/10/16 06:28:26;;;;;;;49.65;25.20;;;9.30;99.90;;;;;;5077001;28;20263;-77
2021/10/16 06:30:54;;;;;;;48.65;24.55;;;9.30;99.90;;;;;;5076822;28;20220;-78
2021/10/16 06:33:22;;;;;;;51.75;24.70;;;9.20;99.90;;;;;;5082332;28;20216;-77
2021/10/16 06:35:49;;;;;;;47.97;25.25;;;9.20;99.90;;;;;;5095015;28;20236;-79
2021/10/16 06:38:16;;;;;;;50.40;25.55;;;9.30;99.90;;;;;;5096782;28;20239;-78
2021/10/16 06:40:43;;;;;;;54.92;25.83;;;9.30;99.90;;;;;;5097711;28;20232;-77
2021/10/16 06:43:10;;;;;;;49.72;25.92;;;9.30;99.90;;;;;;5081707;28;20230;-77
2021/10/16 06:45:37;;;;;;;55.45;24.27;;;9.40;99.90;;;;;;5077123;28;20265;-77
2021/10/16 06:48:05;;;;;;;52.97;26.08;;;9.50;99.90;;;;;;5075583;28;20634;-77
2021/10/16 06:50:32;;;;;;;47.75;23.90;;;9.60;99.90;;;;;;5077223;28;20212;-78
2021/10/16 06:52:59;;;;;;;41.67;23.20;;;9.60;99.90;;;;;;5078405;28;20203;-77
2021/10/16 06:55:26;;;;;;;49.22;23.70;;;9.60;99.90;;;;;;5076785;28;20234;-77
2021/10/16 06:57:53;;;;;;;45.05;23.33;;;9.70;99.90;;;;;;5088828;28;20278;-78
2021/10/16 07:00:20;;;;;;;46.35;23.08;;;9.60;99.90;;;;;;5097021;28;20272;-78
2021/10/16 07:02:47;;;;;;;50.78;22.90;;;9.60;99.90;;;;;;5096919;28;20245;-78
2021/10/16 07:05:15;;;;;;;51.00;24.08;;;9.60;99.90;;;;;;5096464;28;20238;-77
2021/10/16 07:07:42;;;;;;;44.45;22.23;;;9.60;99.90;;;;;;5096754;28;20220;-77
2021/10/16 07:10:09;;;;;;;43.10;21.92;;;9.60;99.90;;;;;;5097564;28;20213;-77
2021/10/16 07:12:36;;;;;;;55.00;23.85;;;9.70;99.90;;;;;;5094433;28;20297;-78
2021/10/16 07:15:04;;;;;;;55.00;24.88;;;9.70;99.90;;;;;;5093175;28;20279;-78
2021/10/16 07:17:31;;;;;;;59.35;25.15;;;9.70;99.90;;;;;;5086650;28;20237;-78
2021/10/16 07:19:58;;;;;;;48.85;23.90;;;9.80;99.90;;;;;;5083286;28;20769;-78
2021/10/16 07:22:26;;;;;;;45.28;22.35;;;9.70;99.90;;;;;;5081363;28;20222;-78
2021/10/16 07:24:53;;;;;;;45.42;21.40;;;9.70;99.90;;;;;;5083118;28;20662;-78
2021/10/16 07:27:20;;;;;;;46.33;23.25;;;9.60;99.90;;;;;;5085596;28;20228;-79
2021/10/16 07:29:47;;;;;;;46.42;22.48;;;9.80;99.90;;;;;;5079192;28;20309;-77
2021/10/16 07:32:14;;;;;;;51.70;22.67;;;9.80;99.90;;;;;;5078562;28;20209;-77
2021/10/16 07:34:41;;;;;;;45.33;22.38;;;9.80;99.90;;;;;;5081215;28;20309;-78
2021/10/16 07:37:08;;;;;;;47.60;22.92;;;9.70;99.90;;;;;;5096770;28;20206;-78
2021/10/16 07:39:37;;;;;;;41.13;21.50;;;9.70;99.90;;;;;;5098090;28;20209;-78
2021/10/16 07:42:04;;;;;;;40.75;20.00;;;9.70;99.90;;;;;;5094829;28;20225;-77
2021/10/16 07:44:30;;;;;;;42.80;19.55;;;9.80;99.90;;;;;;5086781;28;20260;-77
2021/10/16 07:46:57;;;;;;;38.80;20.70;;;9.70;99.90;;;;;;5083194;28;20205;-77
2021/10/16 07:49:24;;;;;;;40.53;20.17;;;9.70;99.90;;;;;;5076931;28;20235;-79
2021/10/16 07:51:51;;;;;;;37.17;19.73;;;9.80;99.90;;;;;;5094425;28;20184;-77
2021/10/16 07:54:18;;;;;;;40.75;19.90;;;9.90;99.90;;;;;;5096887;28;20308;-78
2021/10/16 07:56:46;;;;;;;37.25;20.25;;;9.90;99.90;;;;;;5097130;28;20211;-76
2021/10/16 07:59:13;;;;;;;38.63;20.52;;;9.80;99.90;;;;;;5080507;28;20206;-77
2021/10/16 08:01:43;;;;;;;44.38;20.38;;;9.70;99.90;;;;;;5076947;28;20295;-78
2021/10/16 08:04:10;;;;;;;43.10;21.20;;;9.60;99.90;;;;;;5076162;28;20291;-77
2021/10/16 08:06:37;;;;;;;48.58;21.95;;;9.50;99.90;;;;;;5077931;28;20201;-81
2021/10/16 08:09:04;;;;;;;49.50;22.70;;;9.60;99.90;;;;;;5076488;28;20206;-78
2021/10/16 08:11:31;;;;;;;41.83;19.10;;;9.70;99.90;;;;;;5077450;28;20217;-78
2021/10/16 08:13:59;;;;;;;49.47;21.70;;;9.60;99.90;;;;;;5072559;28;20309;-78
2021/10/16 08:16:26;;;;;;;38.70;19.75;;;9.60;99.90;;;;;;5075476;28;20293;-76
2021/10/16 08:18:53;;;;;;;45.50;21.58;;;9.70;99.90;;;;;;5072995;28;20233;-76
2021/10/16 08:21:20;;;;;;;44.13;20.52;;;9.80;99.90;;;;;;5072220;28;20589;-76
2021/10/16 08:23:47;;;;;;;37.70;19.20;;;10.00;99.90;;;;;;5088601;28;20301;-76
2021/10/16 08:26:14;;;;;;;41.55;19.55;;;10.10;99.90;;;;;;5094770;28;20289;-77
2021/10/16 08:28:40;;;;;;;42.70;20.25;;;9.90;99.90;;;;;;5076920;28;20193;-77
2021/10/16 08:31:09;;;;;;;43.50;20.00;;;10.00;99.90;;;;;;5080031;28;20246;-78
2021/10/16 08:33:37;;;;;;;38.97;20.77;;;9.90;99.90;;;;;;5084129;28;20203;-76
2021/10/16 08:36:04;;;;;;;34.45;17.98;;;10.10;99.90;;;;;;5073806;28;20198;-76
2021/10/16 08:38:31;;;;;;;38.50;18.73;;;10.20;99.90;;;;;;5075736;28;20205;-77
2021/10/16 08:40:58;;;;;;;43.20;20.27;;;10.20;99.90;;;;;;5074743;28;20298;-77
2021/10/16 08:43:25;;;;;;;43.80;21.50;;;10.30;99.90;;;;;;5074820;28;20236;-77
2021/10/16 08:45:53;;;;;;;30.50;17.02;;;10.40;99.80;;;;;;5075206;28;20230;-77
2021/10/16 08:48:21;;;;;;;32.38;17.73;;;10.30;98.70;;;;;;5080952;28;20269;-78
2021/10/16 08:50:49;;;;;;;35.58;17.70;;;10.30;98.40;;;;;;5096447;28;20190;-78
2021/10/16 08:53:16;;;;;;;30.48;17.23;;;10.30;98.30;;;;;;5096826;28;20201;-77
2021/10/16 08:55:44;;;;;;;35.80;18.45;;;10.60;98.20;;;;;;5093659;28;20227;-74
2021/10/16 08:58:10;;;;;;;33.05;17.45;;;10.70;96.60;;;;;;5073877;28;20233;-76
2021/10/16 09:00:49;;;;;;;29.83;17.42;;;10.70;94.20;;;;;;5075092;28;20269;-77
2021/10/16 09:03:18;;;;;;;37.20;19.05;;;10.50;95.60;;;;;;5075089;28;20245;-77
2021/10/16 09:06:06;;;;;;;33.60;18.33;;;10.80;96.00;;;;;;5074153;28;20488;-75
2021/10/16 09:08:36;;;;;;;31.60;17.50;;;11.00;94.30;;;;;;5075314;28;20206;-77
2021/10/16 09:11:14;;;;;;;27.90;15.73;;;11.30;93.60;;;;;;5075009;28;20298;-77
2021/10/16 09:13:46;;;;;;;25.08;16.08;;;11.20;90.70;;;;;;5075649;28;20205;-76
2021/10/16 09:16:21;;;;;;;30.42;17.30;;;11.10;92.00;;;;;;5078330;28;20215;-76
2021/10/16 09:18:52;;;;;;;25.55;16.05;;;11.10;92.00;;;;;;5069602;28;20402;-77
2021/10/16 09:21:21;;;;;;;28.90;16.25;;;11.60;91.10;;;;;;5078892;28;20231;-76
2021/10/16 09:24:00;;;;;;;35.33;16.98;;;11.70;87.70;;;;;;5075942;28;20232;-77
2021/10/16 09:26:27;;;;;;;30.20;16.30;;;11.70;87.20;;;;;;5074303;28;20559;-78
2021/10/16 09:28:57;;;;;;;24.70;16.13;;;11.60;87.90;;;;;;5074322;28;20206;-76
2021/10/16 09:31:31;;;;;;;30.67;16.88;;;11.50;88.00;;;;;;5075570;28;20217;-77
2021/10/16 09:33:58;;;;;;;30.70;16.65;;;11.40;86.80;;;;;;5074067;28;20229;-76
2021/10/16 09:36:27;;;;;;;35.35;16.73;;;11.30;89.80;;;;;;5075402;28;20232;-77
2021/10/16 09:38:54;;;;;;;47.03;18.50;;;11.40;90.20;;;;;;5074717;28;20213;-79
2021/10/16 09:41:26;;;;;;;29.05;15.93;;;11.80;87.70;;;;;;5076857;28;20203;-77
2021/10/16 09:43:53;;;;;;;28.00;16.10;;;12.10;83.00;;;;;;5075148;28;20233;-78
2021/10/16 09:46:21;;;;;;;25.20;15.35;;;12.00;80.40;;;;;;5075867;28;20200;-79
2021/10/16 09:48:48;;;;;;;25.98;16.42;;;11.90;80.70;;;;;;5075163;28;20576;-78
2021/10/16 09:51:16;;;;;;;29.05;16.80;;;11.50;83.40;;;;;;5074262;28;20254;-77
2021/10/16 09:53:46;;;;;;;33.78;16.85;;;11.50;86.00;;;;;;5074409;28;20228;-78
2021/10/16 09:56:13;;;;;;;39.03;18.65;;;11.80;82.90;;;;;;5074603;28;20214;-77
2021/10/16 09:58:41;;;;;;;29.60;17.77;;;11.80;82.70;;;;;;5074573;28;20274;-77
2021/10/16 10:01:10;;;;;;;26.80;15.90;;;11.80;82.50;;;;;;5077761;28;20209;-78
2021/10/16 10:03:40;;;;;;;28.30;17.02;;;11.90;81.50;;;;;;5094578;28;20216;-78
2021/10/16 10:06:09;;;;;;;27.75;17.10;;;11.80;81.40;;;;;;5092943;28;20212;-79
2021/10/16 10:08:36;;;;;;;33.35;16.95;;;11.80;81.50;;;;;;5091233;28;20220;-78
2021/10/16 10:11:04;;;;;;;26.30;17.02;;;11.80;81.60;;;;;;5082105;28;20230;-78
2021/10/16 10:13:31;;;;;;;36.25;17.40;;;11.60;84.20;;;;;;5078810;28;20238;-79
2021/10/16 10:15:58;;;;;;;32.35;17.70;;;11.50;83.60;;;;;;5074943;28;20243;-77
2021/10/16 10:21:11;;;;;;;29.05;18.75;;;11.50;86.00;;;;;;5078450;28;20217;-77
2021/10/16 10:23:53;;;;;;;29.50;17.63;;;11.70;82.80;;;;;;5075775;28;20231;-78
2021/10/16 10:26:26;;;;;;;26.08;17.95;;;11.90;81.60;;;;;;5073467;28;20205;-77
2021/10/16 10:28:56;;;;;;;28.88;17.45;;;11.90;79.10;;;;;;5073095;28;20221;-77
2021/10/16 10:32:10;;;;;;;29.27;19.38;;;11.90;79.60;;;;;;5076438;28;20272;-77
2021/10/16 10:34:39;;;;;;;26.27;17.50;;;11.90;80.00;;;;;;5015675;28;20329;-76
2021/10/16 10:37:12;;;;;;;23.80;16.60;;;12.00;78.90;;;;;;5063271;28;20213;-78
2021/10/16 10:39:44;;;;;;;29.27;18.92;;;12.10;78.20;;;;;;5077353;28;20215;-77
2021/10/16 10:42:47;;;;;;;29.90;18.15;;;11.90;79.20;;;;;;5077157;28;20230;-79
2021/10/16 10:45:39;;;;;;;26.77;18.92;;;12.00;79.40;;;;;;5076495;28;20241;-77
2021/10/16 10:48:15;;;;;;;30.70;18.67;;;12.10;78.20;;;;;;5077032;28;20206;-77
2021/10/16 10:50:51;;;;;;;28.65;17.33;;;11.90;79.90;;;;;;5076608;28;20208;-77
2021/10/16 10:53:39;;;;;;;28.52;18.02;;;11.80;80.90;;;;;;5077617;28;20207;-76
2021/10/16 10:56:21;;;;;;;26.05;17.90;;;11.70;83.40;;;;;;5077854;28;20229;-77
2021/10/16 10:59:04;;;;;;;24.73;17.75;;;11.80;81.70;;;;;;5078250;28;20220;-78
2021/10/16 11:01:51;;;;;;;26.42;16.90;;;12.10;80.70;;;;;;5090391;28;20190;-79
2021/10/16 11:04:51;;;;;;;27.25;18.63;;;11.90;80.10;;;;;;5099150;28;20224;-78
2021/10/16 11:07:30;;;;;;;29.70;19.55;;;12.00;80.00;;;;;;5099601;28;20201;-78
2021/10/16 11:09:58;;;;;;;32.10;20.10;;;12.00;78.10;;;;;;5083307;28;20214;-76
2021/10/16 11:12:30;;;;;;;28.98;18.67;;;11.80;80.70;;;;;;5076632;28;20207;-77
2021/10/16 11:15:00;;;;;;;31.15;19.23;;;11.90;81.50;;;;;;5076740;28;20225;-78
2021/10/16 11:17:42;;;;;;;30.00;19.85;;;11.80;80.50;;;;;;5076629;28;20627;-77
2021/10/16 11:20:11;;;;;;;30.35;18.80;;;11.80;81.80;;;;;;5076610;28;20293;-77
2021/10/16 11:22:49;;;;;;;31.08;20.65;;;12.10;78.40;;;;;;5077868;28;20259;-77
2021/10/16 11:25:21;;;;;;;29.65;18.85;;;12.00;80.00;;;;;;5076306;28;20723;-78
2021/10/16 11:28:09;;;;;;;29.52;18.98;;;12.30;78.40;;;;;;5076707;28;20208;-78
2021/10/16 11:30:39;;;;;;;31.17;19.17;;;12.10;78.20;;;;;;5076763;28;20198;-78
2021/10/16 11:33:08;;;;;;;29.73;19.33;;;12.20;78.30;;;;;;5076506;28;20240;-78
2021/10/16 11:35:36;;;;;;;27.38;18.50;;;12.40;78.50;;;;;;5076334;28;20602;-78
2021/10/16 11:38:03;;;;;;;25.15;17.45;;;12.90;75.20;;;;;;5078398;28;20205;-78
2021/10/16 11:40:32;;;;;;;26.00;17.40;;;13.10;71.40;;;;;;5077788;28;20210;-78
2021/10/16 11:43:01;;;;;;;24.98;16.52;;;12.70;73.30;;;;;;5075679;28;20229;-77
2021/10/16 11:45:30;;;;;;;25.02;17.23;;;12.90;72.50;;;;;;5085751;28;20244;-78
2021/10/16 11:48:00;;;;;;;29.65;19.05;;;13.10;70.40;;;;;;5076412;28;20684;-78
2021/10/16 11:50:29;;;;;;;26.67;17.88;;;13.10;70.40;;;;;;5076073;28;20753;-78
2021/10/16 11:53:07;;;;;;;28.75;17.35;;;13.30;70.00;;;;;;5080850;28;20189;-79
2021/10/16 11:55:34;;;;;;;31.92;18.65;;;13.10;70.40;;;;;;5094031;28;20232;-78
2021/10/16 11:58:04;;;;;;;26.83;17.38;;;13.00;70.30;;;;;;5095911;28;20205;-79
2021/10/16 12:00:31;;;;;;;30.83;19.10;;;12.80;72.00;;;;;;5095582;28;20194;-77
2021/10/16 12:02:59;;;;;;;26.35;18.42;;;12.70;74.10;;;;;;5093873;28;20221;-76
2021/10/16 12:05:27;;;;;;;30.13;17.85;;;13.00;73.10;;;;;;5080640;28;20229;-77
2021/10/16 12:07:56;;;;;;;24.55;17.30;;;13.00;71.10;;;;;;5080471;28;20212;-76
2021/10/16 12:10:28;;;;;;;30.50;18.90;;;12.80;72.80;;;;;;5080953;28;20202;-77
2021/10/16 12:13:05;;;;;;;24.58;16.80;;;12.90;71.40;;;;;;5079814;28;20566;-77
2021/10/16 12:15:39;;;;;;;25.70;16.80;;;13.10;71.60;;;;;;5081211;28;20296;-78
2021/10/16 12:18:17;;;;;;;26.90;17.80;;;13.10;70.90;;;;;;5076050;28;20673;-76
2021/10/16 12:20:46;;;;;;;22.02;16.00;;;13.40;69.80;;;;;;5075721;28;20251;-78
2021/10/16 12:23:13;;;;;;;26.65;16.80;;;13.50;68.20;;;;;;5074681;28;20249;-78
2021/10/16 12:25:48;;;;;;;27.48;16.38;;;13.50;68.60;;;;;;5075126;28;20227;-78
2021/10/16 12:28:16;;;;;;;22.65;15.57;;;13.70;67.70;;;;;;5076112;28;20201;-77
2021/10/16 12:30:58;;;;;;;27.08;16.10;;;13.90;66.70;;;;;;5075913;28;20202;-76
2021/10/16 12:33:26;;;;;;;20.60;15.95;;;13.90;65.20;;;;;;5074076;28;20661;-77
2021/10/16 12:36:01;;;;;;;23.88;16.60;;;13.70;66.50;;;;;;5075247;28;20226;-78
2021/10/16 12:38:45;;;;;;;24.83;15.65;;;13.20;70.40;;;;;;5076523;28;20300;-77
2021/10/16 12:41:22;;;;;;;23.25;16.25;;;13.20;71.20;;;;;;5081128;28;20273;-77
2021/10/16 12:43:49;;;;;;;24.48;16.60;;;13.40;69.60;;;;;;5075203;28;20584;-76